sensor_id;sensor_type;location;lat;lon;timestamp;pressure;altitude;pressure_sealevel;temperature;humidity
50349;BME280;36250;48.740;22.174;2023-01-29T00:01:08;101133.28;;;1.58;62.93
50349;BME280;36250;48.740;22.174;2023-01-29T00:03:34;101125.56;;;1.63;62.30
50349;BME280;36250;48.740;22.174;2023-01-29T00:06:04;101139.13;;;1.62;62.88
50349;BME280;36250;48.740;22.174;2023-01-29T00:08:32;101135.63;;;1.61;62.45
50349;BME280;36250;48.740;22.174;2023-01-29T00:11:02;101144.16;;;1.65;62.96
50349;BME280;36250;48.740;22.174;2023-01-29T00:13:28;101145.19;;;1.64;63.33
50349;BME280;36250;48.740;22.174;2023-01-29T00:15:55;101134.13;;;1.59;63.30
50349;BME280;36250;48.740;22.174;2023-01-29T00:18:21;101148.53;;;1.66;63.52
50349;BME280;36250;48.740;22.174;2023-01-29T00:20:46;101134.28;;;1.65;63.18
50349;BME280;36250;48.740;22.174;2023-01-29T00:23:11;101149.00;;;1.69;62.63
50349;BME280;36250;48.740;22.174;2023-01-29T00:25:36;101140.47;;;1.66;62.77
50349;BME280;36250;48.740;22.174;2023-01-29T00:28:02;101144.66;;;1.68;63.16
50349;BME280;36250;48.740;22.174;2023-01-29T00:30:27;101145.81;;;1.74;63.17
50349;BME280;36250;48.740;22.174;2023-01-29T00:32:53;101151.88;;;1.76;62.72
50349;BME280;36250;48.740;22.174;2023-01-29T00:35:18;101144.31;;;1.71;63.04
50349;BME280;36250;48.740;22.174;2023-01-29T00:37:43;101141.47;;;1.73;63.42
50349;BME280;36250;48.740;22.174;2023-01-29T00:40:09;101159.75;;;1.69;63.24
50349;BME280;36250;48.740;22.174;2023-01-29T00:42:35;101152.06;;;1.66;63.63
50349;BME280;36250;48.740;22.174;2023-01-29T00:45:18;101155.72;;;1.65;64.02
50349;BME280;36250;48.740;22.174;2023-01-29T00:47:44;101154.41;;;1.61;63.94
50349;BME280;36250;48.740;22.174;2023-01-29T00:50:10;101150.22;;;1.59;64.34
50349;BME280;36250;48.740;22.174;2023-01-29T00:52:36;101153.38;;;1.62;64.16
50349;BME280;36250;48.740;22.174;2023-01-29T00:55:03;101152.53;;;1.62;64.93
50349;BME280;36250;48.740;22.174;2023-01-29T00:57:32;101157.94;;;1.54;64.55
50349;BME280;36250;48.740;22.174;2023-01-29T00:59:58;101157.09;;;1.61;64.66
50349;BME280;36250;48.740;22.174;2023-01-29T01:02:24;101154.75;;;1.66;63.89
50349;BME280;36250;48.740;22.174;2023-01-29T01:05:09;101165.47;;;1.58;63.63
50349;BME280;36250;48.740;22.174;2023-01-29T01:07:39;101160.44;;;1.55;64.45
50349;BME280;36250;48.740;22.174;2023-01-29T01:10:05;101160.94;;;1.59;63.54
50349;BME280;36250;48.740;22.174;2023-01-29T01:13:06;101165.63;;;1.65;63.80
50349;BME280;36250;48.740;22.174;2023-01-29T01:15:37;101161.75;;;1.67;64.25
50349;BME280;36250;48.740;22.174;2023-01-29T01:18:03;101161.28;;;1.64;64.04
50349;BME280;36250;48.740;22.174;2023-01-29T01:20:31;101154.91;;;1.65;64.50
50349;BME280;36250;48.740;22.174;2023-01-29T01:22:56;101161.63;;;1.61;63.81
50349;BME280;36250;48.740;22.174;2023-01-29T01:25:23;101161.09;;;1.57;64.39
50349;BME280;36250;48.740;22.174;2023-01-29T01:27:56;101159.44;;;1.56;64.36
50349;BME280;36250;48.740;22.174;2023-01-29T01:30:22;101158.41;;;1.57;63.94
50349;BME280;36250;48.740;22.174;2023-01-29T01:32:48;101164.44;;;1.59;64.67
50349;BME280;36250;48.740;22.174;2023-01-29T01:35:14;101161.28;;;1.48;64.90
50349;BME280;36250;48.740;22.174;2023-01-29T01:37:39;101166.31;;;1.51;64.81
50349;BME280;36250;48.740;22.174;2023-01-29T01:40:07;101168.16;;;1.50;64.76
50349;BME280;36250;48.740;22.174;2023-01-29T01:42:39;101165.97;;;1.62;64.28
50349;BME280;36250;48.740;22.174;2023-01-29T01:45:07;101170.00;;;1.58;64.44
50349;BME280;36250;48.740;22.174;2023-01-29T01:47:54;101164.13;;;1.62;64.31
50349;BME280;36250;48.740;22.174;2023-01-29T01:50:30;101161.28;;;1.64;64.19
50349;BME280;36250;48.740;22.174;2023-01-29T01:53:23;101159.75;;;1.69;63.82
50349;BME280;36250;48.740;22.174;2023-01-29T01:55:56;101165.13;;;1.69;64.29
50349;BME280;36250;48.740;22.174;2023-01-29T01:58:29;101168.97;;;1.67;64.04
50349;BME280;36250;48.740;22.174;2023-01-29T02:00:56;101180.88;;;1.64;64.08
50349;BME280;36250;48.740;22.174;2023-01-29T02:03:21;101174.34;;;1.67;64.58
50349;BME280;36250;48.740;22.174;2023-01-29T02:06:07;101173.53;;;1.66;64.59
50349;BME280;36250;48.740;22.174;2023-01-29T02:09:16;101178.53;;;1.69;64.76
50349;BME280;36250;48.740;22.174;2023-01-29T02:12:01;101180.69;;;1.74;65.07
50349;BME280;36250;48.740;22.174;2023-01-29T02:14:26;101173.34;;;1.76;64.43
50349;BME280;36250;48.740;22.174;2023-01-29T02:16:52;101178.72;;;1.76;64.43
50349;BME280;36250;48.740;22.174;2023-01-29T02:27:02;101179.88;;;1.57;62.71
50349;BME280;36250;48.740;22.174;2023-01-29T02:32:41;101190.78;;;1.56;61.83
50349;BME280;36250;48.740;22.174;2023-01-29T02:35:27;101190.78;;;1.56;61.60
50349;BME280;36250;48.740;22.174;2023-01-29T02:40:54;101199.31;;;1.59;62.33
50349;BME280;36250;48.740;22.174;2023-01-29T02:46:07;101201.19;;;1.59;61.53
50349;BME280;36250;48.740;22.174;2023-01-29T02:51:54;101210.25;;;1.58;61.53
50349;BME280;36250;48.740;22.174;2023-01-29T02:54:40;101201.53;;;1.56;61.77
50349;BME280;36250;48.740;22.174;2023-01-29T02:57:21;101200.34;;;1.58;61.65
50349;BME280;36250;48.740;22.174;2023-01-29T03:00:03;101195.66;;;1.60;61.97
50349;BME280;36250;48.740;22.174;2023-01-29T03:02:54;101204.69;;;1.59;61.41
50349;BME280;36250;48.740;22.174;2023-01-29T03:05:34;101205.38;;;1.53;61.27
50349;BME280;36250;48.740;22.174;2023-01-29T03:08:08;101201.66;;;1.54;61.27
50349;BME280;36250;48.740;22.174;2023-01-29T03:10:39;101207.03;;;1.54;61.59
50349;BME280;36250;48.740;22.174;2023-01-29T03:13:15;101210.06;;;1.59;61.98
50349;BME280;36250;48.740;22.174;2023-01-29T03:15:45;101206.56;;;1.59;61.64
50349;BME280;36250;48.740;22.174;2023-01-29T03:18:21;101208.41;;;1.58;61.59
50349;BME280;36250;48.740;22.174;2023-01-29T03:20:53;101211.41;;;1.63;61.05
50349;BME280;36250;48.740;22.174;2023-01-29T03:23:28;101204.38;;;1.62;62.11
50349;BME280;36250;48.740;22.174;2023-01-29T03:26:14;101204.22;;;1.64;61.88
50349;BME280;36250;48.740;22.174;2023-01-29T03:29:00;101200.84;;;1.62;62.30
50349;BME280;36250;48.740;22.174;2023-01-29T03:31:46;101207.56;;;1.58;61.97
50349;BME280;36250;48.740;22.174;2023-01-29T03:34:40;101203.88;;;1.59;61.92
50349;BME280;36250;48.740;22.174;2023-01-29T03:37:17;101205.06;;;1.56;62.96
50349;BME280;36250;48.740;22.174;2023-01-29T03:39:45;101197.66;;;1.58;62.81
50349;BME280;36250;48.740;22.174;2023-01-29T03:45:28;101200.34;;;1.50;62.97
50349;BME280;36250;48.740;22.174;2023-01-29T03:56:01;101210.59;;;1.47;63.16
50349;BME280;36250;48.740;22.174;2023-01-29T03:58:44;101202.53;;;1.47;62.17
50349;BME280;36250;48.740;22.174;2023-01-29T04:01:43;101204.06;;;1.49;62.42
50349;BME280;36250;48.740;22.174;2023-01-29T04:04:39;101199.69;;;1.56;63.27
50349;BME280;36250;48.740;22.174;2023-01-29T04:07:15;101204.22;;;1.56;62.69
50349;BME280;36250;48.740;22.174;2023-01-29T04:09:48;101207.03;;;1.54;63.08
50349;BME280;36250;48.740;22.174;2023-01-29T04:12:20;101199.50;;;1.58;63.08
50349;BME280;36250;48.740;22.174;2023-01-29T04:14:49;101199.00;;;1.54;63.03
50349;BME280;36250;48.740;22.174;2023-01-29T04:17:20;101208.06;;;1.53;62.93
50349;BME280;36250;48.740;22.174;2023-01-29T04:19:46;101211.75;;;1.52;63.06
50349;BME280;36250;48.740;22.174;2023-01-29T04:22:33;101205.72;;;1.50;63.25
50349;BME280;36250;48.740;22.174;2023-01-29T04:24:59;101203.69;;;1.52;63.28
50349;BME280;36250;48.740;22.174;2023-01-29T04:38:00;101191.44;;;1.50;63.04
50349;BME280;36250;48.740;22.174;2023-01-29T04:40:38;101199.00;;;1.46;63.30
50349;BME280;36250;48.740;22.174;2023-01-29T04:43:14;101197.00;;;1.48;63.82
50349;BME280;36250;48.740;22.174;2023-01-29T04:45:53;101188.63;;;1.51;63.12
50349;BME280;36250;48.740;22.174;2023-01-29T04:51:18;101180.53;;;1.59;63.39
50349;BME280;36250;48.740;22.174;2023-01-29T04:54:03;101176.19;;;1.58;63.15
50349;BME280;36250;48.740;22.174;2023-01-29T04:56:39;101187.78;;;1.59;63.24
50349;BME280;36250;48.740;22.174;2023-01-29T04:59:08;101185.28;;;1.49;63.95
50349;BME280;36250;48.740;22.174;2023-01-29T05:01:37;101190.44;;;1.43;64.40
50349;BME280;36250;48.740;22.174;2023-01-29T05:04:12;101194.28;;;1.40;64.31
50349;BME280;36250;48.740;22.174;2023-01-29T05:06:39;101196.66;;;1.43;63.98
50349;BME280;36250;48.740;22.174;2023-01-29T05:09:06;101193.63;;;1.38;64.64
50349;BME280;36250;48.740;22.174;2023-01-29T05:11:34;101193.09;;;1.34;65.10
50349;BME280;36250;48.740;22.174;2023-01-29T05:14:01;101189.25;;;1.37;64.98
50349;BME280;36250;48.740;22.174;2023-01-29T05:16:32;101193.47;;;1.31;64.78
50349;BME280;36250;48.740;22.174;2023-01-29T05:19:10;101193.94;;;1.35;64.72
50349;BME280;36250;48.740;22.174;2023-01-29T05:21:37;101209.53;;;1.40;65.54
50349;BME280;36250;48.740;22.174;2023-01-29T05:24:08;101209.91;;;1.37;65.60
50349;BME280;36250;48.740;22.174;2023-01-29T05:26:33;101209.91;;;1.37;65.04
50349;BME280;36250;48.740;22.174;2023-01-29T05:29:17;101224.13;;;1.37;65.57
50349;BME280;36250;48.740;22.174;2023-01-29T05:31:43;101225.50;;;1.41;66.20
50349;BME280;36250;48.740;22.174;2023-01-29T05:34:09;101226.16;;;1.43;66.01
50349;BME280;36250;48.740;22.174;2023-01-29T05:36:34;101226.16;;;1.43;66.08
50349;BME280;36250;48.740;22.174;2023-01-29T05:38:59;101220.78;;;1.35;65.80
50349;BME280;36250;48.740;22.174;2023-01-29T05:41:25;101223.13;;;1.30;66.15
50349;BME280;36250;48.740;22.174;2023-01-29T05:43:50;101222.44;;;1.28;65.87
50349;BME280;36250;48.740;22.174;2023-01-29T05:46:15;101236.88;;;1.27;66.03
50349;BME280;36250;48.740;22.174;2023-01-29T05:48:41;101231.84;;;1.24;65.79
50349;BME280;36250;48.740;22.174;2023-01-29T05:51:06;101233.84;;;1.22;65.92
50349;BME280;36250;48.740;22.174;2023-01-29T05:53:32;101235.38;;;1.24;66.01
50349;BME280;36250;48.740;22.174;2023-01-29T05:56:00;101231.16;;;1.30;65.00
50349;BME280;36250;48.740;22.174;2023-01-29T05:58:26;101227.66;;;1.38;64.72
50349;BME280;36250;48.740;22.174;2023-01-29T06:00:51;101233.16;;;1.28;64.94
50349;BME280;36250;48.740;22.174;2023-01-29T06:03:16;101234.50;;;1.24;64.43
50349;BME280;36250;48.740;22.174;2023-01-29T06:05:42;101225.44;;;1.25;63.76
50349;BME280;36250;48.740;22.174;2023-01-29T06:08:07;101228.81;;;1.19;62.98
50349;BME280;36250;48.740;22.174;2023-01-29T06:10:33;101238.03;;;1.24;62.58
50349;BME280;36250;48.740;22.174;2023-01-29T06:12:59;101239.53;;;1.19;62.36
50349;BME280;36250;48.740;22.174;2023-01-29T06:15:24;101242.56;;;1.24;62.13
50349;BME280;36250;48.740;22.174;2023-01-29T06:17:53;101233.16;;;1.28;61.43
50349;BME280;36250;48.740;22.174;2023-01-29T06:20:18;101242.41;;;1.33;61.26
50349;BME280;36250;48.740;22.174;2023-01-29T06:22:44;101240.22;;;1.37;61.58
50349;BME280;36250;48.740;22.174;2023-01-29T06:25:09;101243.25;;;1.34;61.63
50349;BME280;36250;48.740;22.174;2023-01-29T06:27:34;101242.69;;;1.22;61.66
50349;BME280;36250;48.740;22.174;2023-01-29T06:30:00;101251.41;;;1.16;61.39
50349;BME280;36250;48.740;22.174;2023-01-29T06:32:26;101250.09;;;1.12;61.37
50349;BME280;36250;48.740;22.174;2023-01-29T06:34:51;101259.97;;;1.12;61.72
50349;BME280;36250;48.740;22.174;2023-01-29T06:37:17;101261.81;;;1.19;61.61
50349;BME280;36250;48.740;22.174;2023-01-29T06:39:42;101251.41;;;1.16;62.20
50349;BME280;36250;48.740;22.174;2023-01-29T06:42:08;101257.28;;;1.12;61.89
50349;BME280;36250;48.740;22.174;2023-01-29T06:44:34;101255.44;;;1.12;62.83
50349;BME280;36250;48.740;22.174;2023-01-29T06:46:59;101263.44;;;1.04;62.93
50349;BME280;36250;48.740;22.174;2023-01-29T06:49:24;101256.91;;;0.99;64.02
50349;BME280;36250;48.740;22.174;2023-01-29T06:51:50;101265.78;;;0.99;63.10
50349;BME280;36250;48.740;22.174;2023-01-29T06:54:15;101254.91;;;1.09;63.71
50349;BME280;36250;48.740;22.174;2023-01-29T06:56:41;101253.25;;;1.16;63.55
50349;BME280;36250;48.740;22.174;2023-01-29T06:59:06;101253.25;;;1.16;62.89
50349;BME280;36250;48.740;22.174;2023-01-29T07:01:31;101257.94;;;1.14;63.37
50349;BME280;36250;48.740;22.174;2023-01-29T07:03:57;101256.28;;;1.21;62.81
50349;BME280;36250;48.740;22.174;2023-01-29T07:06:27;101256.97;;;1.23;62.42
50349;BME280;36250;48.740;22.174;2023-01-29T07:08:53;101256.97;;;1.23;63.13
50349;BME280;36250;48.740;22.174;2023-01-29T07:11:18;101253.09;;;1.25;63.05
50349;BME280;36250;48.740;22.174;2023-01-29T07:13:43;101255.28;;;1.30;63.33
50349;BME280;36250;48.740;22.174;2023-01-29T07:16:09;101244.06;;;1.34;62.99
50349;BME280;36250;48.740;22.174;2023-01-29T07:18:34;101251.78;;;1.38;62.58
50349;BME280;36250;48.740;22.174;2023-01-29T07:21:03;101247.78;;;1.42;62.47
50349;BME280;36250;48.740;22.174;2023-01-29T07:23:30;101247.47;;;1.53;63.01
50349;BME280;36250;48.740;22.174;2023-01-29T07:25:55;101247.63;;;1.43;62.56
50349;BME280;36250;48.740;22.174;2023-01-29T07:28:20;101250.78;;;1.39;62.16
50349;BME280;36250;48.740;22.174;2023-01-29T07:30:46;101252.63;;;1.30;62.80
50349;BME280;36250;48.740;22.174;2023-01-29T07:33:11;101258.69;;;1.32;63.17
50349;BME280;36250;48.740;22.174;2023-01-29T07:35:38;101257.00;;;1.31;63.46
50349;BME280;36250;48.740;22.174;2023-01-29T07:38:04;101258.31;;;1.27;62.91
50349;BME280;36250;48.740;22.174;2023-01-29T07:40:30;101261.69;;;1.29;62.74
50349;BME280;36250;48.740;22.174;2023-01-29T07:42:59;101264.03;;;1.32;62.96
50349;BME280;36250;48.740;22.174;2023-01-29T07:45:25;101262.69;;;1.36;62.60
50349;BME280;36250;48.740;22.174;2023-01-29T07:47:52;101267.75;;;1.39;62.89
50349;BME280;36250;48.740;22.174;2023-01-29T07:50:18;101273.09;;;1.39;63.06
50349;BME280;36250;48.740;22.174;2023-01-29T07:52:43;101270.75;;;1.44;62.77
50349;BME280;36250;48.740;22.174;2023-01-29T07:55:09;101273.28;;;1.46;62.74
50349;BME280;36250;48.740;22.174;2023-01-29T07:57:34;101285.00;;;1.37;63.91
50349;BME280;36250;48.740;22.174;2023-01-29T07:59:59;101277.78;;;1.29;64.06
50349;BME280;36250;48.740;22.174;2023-01-29T08:02:25;101281.09;;;1.23;64.10
50349;BME280;36250;48.740;22.174;2023-01-29T08:04:50;101289.97;;;1.23;64.38
50349;BME280;36250;48.740;22.174;2023-01-29T08:07:15;101290.69;;;1.33;63.64
50349;BME280;36250;48.740;22.174;2023-01-29T08:09:41;101290.00;;;1.40;63.10
50349;BME280;36250;48.740;22.174;2023-01-29T08:12:06;101282.31;;;1.37;63.94
50349;BME280;36250;48.740;22.174;2023-01-29T08:14:31;101280.97;;;1.41;62.85
50349;BME280;36250;48.740;22.174;2023-01-29T08:16:57;101285.69;;;1.47;63.60
50349;BME280;36250;48.740;22.174;2023-01-29T08:19:22;101290.38;;;1.53;62.30
50349;BME280;36250;48.740;22.174;2023-01-29T08:21:47;101288.53;;;1.45;62.15
50349;BME280;36250;48.740;22.174;2023-01-29T08:24:13;101278.13;;;1.42;61.78
50349;BME280;36250;48.740;22.174;2023-01-29T08:26:38;101281.84;;;1.49;62.39
50349;BME280;36250;48.740;22.174;2023-01-29T08:29:03;101287.53;;;1.46;61.48
50349;BME280;36250;48.740;22.174;2023-01-29T08:31:29;101291.88;;;1.39;62.26
50349;BME280;36250;48.740;22.174;2023-01-29T08:33:54;101299.72;;;1.32;61.45
50349;BME280;36250;48.740;22.174;2023-01-29T08:36:20;101291.19;;;1.37;61.93
50349;BME280;36250;48.740;22.174;2023-01-29T08:38:45;101296.41;;;1.39;61.68
50349;BME280;36250;48.740;22.174;2023-01-29T08:41:11;101296.91;;;1.34;61.91
50349;BME280;36250;48.740;22.174;2023-01-29T08:43:36;101292.34;;;1.34;61.46
50349;BME280;36250;48.740;22.174;2023-01-29T08:46:03;101295.72;;;1.37;62.02
50349;BME280;36250;48.740;22.174;2023-01-29T08:48:29;101295.72;;;1.37;61.83
50349;BME280;36250;48.740;22.174;2023-01-29T08:50:59;101296.41;;;1.39;61.56
50349;BME280;36250;48.740;22.174;2023-01-29T08:53:24;101307.78;;;1.41;62.16
50349;BME280;36250;48.740;22.174;2023-01-29T08:55:50;101311.13;;;1.34;61.61
50349;BME280;36250;48.740;22.174;2023-01-29T08:58:17;101304.94;;;1.34;61.86
50349;BME280;36250;48.740;22.174;2023-01-29T09:00:42;101307.44;;;1.36;62.38
50349;BME280;36250;48.740;22.174;2023-01-29T09:03:08;101307.13;;;1.39;62.29
50349;BME280;36250;48.740;22.174;2023-01-29T09:05:35;101304.59;;;1.37;62.36
50349;BME280;36250;48.740;22.174;2023-01-29T09:08:01;101310.63;;;1.31;62.85
50349;BME280;36250;48.740;22.174;2023-01-29T09:10:27;101313.13;;;1.32;62.64
50349;BME280;36250;48.740;22.174;2023-01-29T09:12:52;101320.84;;;1.36;62.77
50349;BME280;36250;48.740;22.174;2023-01-29T09:15:17;101311.66;;;1.38;62.43
50349;BME280;36250;48.740;22.174;2023-01-29T09:17:43;101322.53;;;1.37;62.29
50349;BME280;36250;48.740;22.174;2023-01-29T09:20:09;101333.09;;;1.38;62.31
50349;BME280;36250;48.740;22.174;2023-01-29T09:22:34;101334.44;;;1.34;62.98
50349;BME280;36250;48.740;22.174;2023-01-29T09:25:00;101332.44;;;1.36;62.86
50349;BME280;36250;48.740;22.174;2023-01-29T09:27:25;101331.75;;;1.34;63.10
50349;BME280;36250;48.740;22.174;2023-01-29T09:29:51;101334.94;;;1.29;62.80
50349;BME280;36250;48.740;22.174;2023-01-29T09:32:16;101339.59;;;1.27;63.04
50349;BME280;36250;48.740;22.174;2023-01-29T09:34:41;101338.97;;;1.33;63.10
50349;BME280;36250;48.740;22.174;2023-01-29T09:37:07;101342.66;;;1.41;63.38
50349;BME280;36250;48.740;22.174;2023-01-29T09:39:33;101339.31;;;1.39;62.76
50349;BME280;36250;48.740;22.174;2023-01-29T09:42:33;101334.44;;;1.34;62.77
50349;BME280;36250;48.740;22.174;2023-01-29T09:45:09;101340.63;;;1.34;63.45
50349;BME280;36250;48.740;22.174;2023-01-29T09:47:36;101347.84;;;1.34;63.07
50349;BME280;36250;48.740;22.174;2023-01-29T09:50:11;101347.19;;;1.32;63.20
50349;BME280;36250;48.740;22.174;2023-01-29T09:52:41;101348.00;;;1.24;62.93
50349;BME280;36250;48.740;22.174;2023-01-29T09:55:20;101339.94;;;1.24;62.93
50349;BME280;36250;48.740;22.174;2023-01-29T10:00:30;101334.91;;;1.21;62.54
50349;BME280;36250;48.740;22.174;2023-01-29T10:16:48;101335.66;;;1.06;63.06
50349;BME280;36250;48.740;22.174;2023-01-29T10:27:15;101322.75;;;1.01;61.58
50349;BME280;36250;48.740;22.174;2023-01-29T10:29:43;101327.44;;;0.99;61.54
50349;BME280;36250;48.740;22.174;2023-01-29T10:32:14;101315.38;;;0.95;61.63
50349;BME280;36250;48.740;22.174;2023-01-29T10:34:45;101306.47;;;0.95;60.94
50349;BME280;36250;48.740;22.174;2023-01-29T10:37:30;101307.50;;;1.02;61.28
50349;BME280;36250;48.740;22.174;2023-01-29T10:39:59;101310.00;;;1.03;61.07
50349;BME280;36250;48.740;22.174;2023-01-29T10:42:40;101300.13;;;1.04;60.95
50349;BME280;36250;48.740;22.174;2023-01-29T11:00:50;101279.47;;;0.88;61.38
50349;BME280;36250;48.740;22.174;2023-01-29T11:03:25;101278.03;;;1.02;61.23
50349;BME280;36250;48.740;22.174;2023-01-29T11:08:24;101265.91;;;0.90;60.58
50349;BME280;36250;48.740;22.174;2023-01-29T11:13:53;101273.34;;;1.04;60.83
50349;BME280;36250;48.740;22.174;2023-01-29T11:16:21;101265.09;;;0.97;60.87
50349;BME280;36250;48.740;22.174;2023-01-29T11:21:13;101261.59;;;0.97;61.36
50349;BME280;36250;48.740;22.174;2023-01-29T11:23:38;101262.25;;;0.99;61.84
50349;BME280;36250;48.740;22.174;2023-01-29T11:26:04;101256.91;;;0.99;61.82
50349;BME280;36250;48.740;22.174;2023-01-29T11:28:41;101258.59;;;1.08;61.03
50349;BME280;36250;48.740;22.174;2023-01-29T11:31:23;101244.50;;;1.06;60.65
50349;BME280;36250;48.740;22.174;2023-01-29T11:33:52;101246.53;;;1.04;61.37
50349;BME280;36250;48.740;22.174;2023-01-29T11:36:36;101240.19;;;1.05;61.12
50349;BME280;36250;48.740;22.174;2023-01-29T11:39:21;101245.84;;;1.02;61.10
50349;BME280;36250;48.740;22.174;2023-01-29T11:42:05;101236.78;;;0.95;61.48
50349;BME280;36250;48.740;22.174;2023-01-29T11:47:15;101242.19;;;1.11;60.27
50349;BME280;36250;48.740;22.174;2023-01-29T11:49:47;101240.50;;;1.02;60.56
50349;BME280;36250;48.740;22.174;2023-01-29T11:52:16;101242.16;;;0.95;60.27
50349;BME280;36250;48.740;22.174;2023-01-29T11:54:52;101237.63;;;0.95;60.54
50349;BME280;36250;48.740;22.174;2023-01-29T11:57:31;101234.81;;;1.05;61.48
50349;BME280;36250;48.740;22.174;2023-01-29T12:00:04;101229.63;;;1.11;61.18
50349;BME280;36250;48.740;22.174;2023-01-29T12:02:52;101223.75;;;1.16;61.00
50349;BME280;36250;48.740;22.174;2023-01-29T12:05:20;101221.59;;;1.11;61.25
50349;BME280;36250;48.740;22.174;2023-01-29T12:07:50;101219.72;;;1.04;61.04
50349;BME280;36250;48.740;22.174;2023-01-29T12:13:25;101205.28;;;0.97;60.56
50349;BME280;36250;48.740;22.174;2023-01-29T12:16:03;101201.44;;;0.99;61.28
50349;BME280;36250;48.740;22.174;2023-01-29T12:18:38;101207.16;;;1.04;60.93
50349;BME280;36250;48.740;22.174;2023-01-29T12:24:48;101186.41;;;1.14;61.52
50349;BME280;36250;48.740;22.174;2023-01-29T12:27:25;101188.25;;;1.14;60.91
50349;BME280;36250;48.740;22.174;2023-01-29T12:30:03;101186.91;;;1.10;60.85
50349;BME280;36250;48.740;22.174;2023-01-29T12:35:30;101188.88;;;1.08;60.77
50349;BME280;36250;48.740;22.174;2023-01-29T12:38:17;101190.75;;;1.07;59.43
50349;BME280;36250;48.740;22.174;2023-01-29T12:43:35;101183.19;;;0.95;60.14
50349;BME280;36250;48.740;22.174;2023-01-29T12:46:05;101179.69;;;1.02;60.15
50349;BME280;36250;48.740;22.174;2023-01-29T12:48:37;101175.84;;;1.05;60.42
50349;BME280;36250;48.740;22.174;2023-01-29T12:51:07;101177.16;;;1.01;59.74
50349;BME280;36250;48.740;22.174;2023-01-29T12:53:38;101173.31;;;1.03;60.36
50349;BME280;36250;48.740;22.174;2023-01-29T12:56:25;101171.47;;;1.20;60.71
50349;BME280;36250;48.740;22.174;2023-01-29T12:58:52;101169.84;;;1.27;60.09
50349;BME280;36250;48.740;22.174;2023-01-29T13:01:27;101172.16;;;1.30;59.50
50349;BME280;36250;48.740;22.174;2023-01-29T13:04:10;101168.31;;;1.16;59.23
50349;BME280;36250;48.740;22.174;2023-01-29T13:07:09;101168.47;;;1.15;59.43
50349;BME280;36250;48.740;22.174;2023-01-29T13:09:41;101168.97;;;1.18;59.39
50349;BME280;36250;48.740;22.174;2023-01-29T13:12:14;101170.13;;;1.16;59.30
50349;BME280;36250;48.740;22.174;2023-01-29T13:14:53;101164.09;;;1.06;59.99
50349;BME280;36250;48.740;22.174;2023-01-29T13:17:29;101163.09;;;1.07;60.12
50349;BME280;36250;48.740;22.174;2023-01-29T13:20:02;101165.47;;;1.10;59.67
50349;BME280;36250;48.740;22.174;2023-01-29T13:22:34;101165.44;;;1.18;58.43
50349;BME280;36250;48.740;22.174;2023-01-29T13:25:01;101157.41;;;1.18;59.32
50349;BME280;36250;48.740;22.174;2023-01-29T13:27:30;101154.38;;;1.13;59.11
50349;BME280;36250;48.740;22.174;2023-01-29T13:29:56;101150.03;;;1.04;58.88
50349;BME280;36250;48.740;22.174;2023-01-29T13:32:27;101149.69;;;1.07;58.99
50349;BME280;36250;48.740;22.174;2023-01-29T13:35:05;101144.00;;;1.10;58.98
50349;BME280;36250;48.740;22.174;2023-01-29T13:37:41;101157.41;;;1.18;59.12
50349;BME280;36250;48.740;22.174;2023-01-29T13:40:20;101158.91;;;1.20;57.84
50349;BME280;36250;48.740;22.174;2023-01-29T13:42:48;101149.22;;;1.19;57.99
50349;BME280;36250;48.740;22.174;2023-01-29T13:45:23;101147.03;;;1.31;57.80
50349;BME280;36250;48.740;22.174;2023-01-29T13:47:50;101147.03;;;1.31;57.84
50349;BME280;36250;48.740;22.174;2023-01-29T13:52:58;101145.34;;;1.30;57.96
50349;BME280;36250;48.740;22.174;2023-01-29T13:55:37;101159.59;;;1.30;57.58
50349;BME280;36250;48.740;22.174;2023-01-29T13:58:06;101157.09;;;1.29;57.50
50349;BME280;36250;48.740;22.174;2023-01-29T14:08:00;101151.91;;;1.19;56.51
50349;BME280;36250;48.740;22.174;2023-01-29T14:10:27;101145.19;;;1.23;56.53
50349;BME280;36250;48.740;22.174;2023-01-29T14:18:25;101150.53;;;1.40;56.54
50349;BME280;36250;48.740;22.174;2023-01-29T14:21:19;101154.25;;;1.39;57.32
50349;BME280;36250;48.740;22.174;2023-01-29T14:23:50;101149.69;;;1.47;57.56
50349;BME280;36250;48.740;22.174;2023-01-29T14:26:20;101154.56;;;1.52;57.63
50349;BME280;36250;48.740;22.174;2023-01-29T14:34:12;101161.28;;;1.23;57.30
50349;BME280;36250;48.740;22.174;2023-01-29T14:36:40;101170.97;;;1.08;56.27
50349;BME280;36250;48.740;22.174;2023-01-29T14:39:21;101176.00;;;0.95;56.63
50349;BME280;36250;48.740;22.174;2023-01-29T14:41:49;101171.09;;;0.91;57.73
